sensor_id;sensor_type;location;lat;lon;timestamp;P1;durP1;ratioP1;P2;durP2;ratioP2
56399;SDS011;42298;53.638;9.876;2023-03-03T00:01:21;40.70;;;22.20;;
56399;SDS011;42298;53.638;9.876;2023-03-03T00:03:49;45.90;;;22.60;;
56399;SDS011;42298;53.638;9.876;2023-03-03T00:06:14;57.90;;;24.20;;
56399;SDS011;42298;53.638;9.876;2023-03-03T00:08:40;61.17;;;24.40;;
56399;SDS011;42298;53.638;9.876;2023-03-03T00:11:06;55.57;;;22.43;;
56399;SDS011;42298;53.638;9.876;2023-03-03T00:13:32;67.10;;;23.40;;
56399;SDS011;42298;53.638;9.876;2023-03-03T00:16:16;115.27;;;26.83;;
56399;SDS011;42298;53.638;9.876;2023-03-03T00:19:01;62.93;;;22.87;;
56399;SDS011;42298;53.638;9.876;2023-03-03T00:21:27;62.13;;;22.63;;
56399;SDS011;42298;53.638;9.876;2023-03-03T00:24:42;99.03;;;26.03;;
56399;SDS011;42298;53.638;9.876;2023-03-03T00:29:54;94.03;;;24.80;;
56399;SDS011;42298;53.638;9.876;2023-03-03T00:35:30;48.80;;;20.60;;
56399;SDS011;42298;53.638;9.876;2023-03-03T00:37:55;163.03;;;29.47;;
56399;SDS011;42298;53.638;9.876;2023-03-03T00:40:37;86.30;;;22.93;;
56399;SDS011;42298;53.638;9.876;2023-03-03T00:43:21;42.77;;;20.00;;
56399;SDS011;42298;53.638;9.876;2023-03-03T00:45:55;59.97;;;20.57;;
56399;SDS011;42298;53.638;9.876;2023-03-03T00:48:22;47.30;;;19.93;;
56399;SDS011;42298;53.638;9.876;2023-03-03T00:51:00;64.03;;;23.07;;
56399;SDS011;42298;53.638;9.876;2023-03-03T00:53:34;53.57;;;20.40;;
56399;SDS011;42298;53.638;9.876;2023-03-03T00:56:00;53.57;;;20.30;;
56399;SDS011;42298;53.638;9.876;2023-03-03T00:58:25;115.70;;;26.53;;
56399;SDS011;42298;53.638;9.876;2023-03-03T01:00:52;37.70;;;18.70;;
56399;SDS011;42298;53.638;9.876;2023-03-03T01:03:19;51.47;;;20.23;;
56399;SDS011;42298;53.638;9.876;2023-03-03T01:05:47;42.90;;;19.73;;
56399;SDS011;42298;53.638;9.876;2023-03-03T01:08:14;58.30;;;19.53;;
56399;SDS011;42298;53.638;9.876;2023-03-03T01:10:41;40.23;;;19.50;;
56399;SDS011;42298;53.638;9.876;2023-03-03T01:13:14;94.30;;;22.83;;
56399;SDS011;42298;53.638;9.876;2023-03-03T01:15:40;60.77;;;20.20;;
56399;SDS011;42298;53.638;9.876;2023-03-03T01:18:05;56.33;;;19.43;;
56399;SDS011;42298;53.638;9.876;2023-03-03T01:20:31;45.37;;;19.17;;
56399;SDS011;42298;53.638;9.876;2023-03-03T01:22:57;86.50;;;24.47;;
56399;SDS011;42298;53.638;9.876;2023-03-03T01:25:22;49.67;;;19.13;;
56399;SDS011;42298;53.638;9.876;2023-03-03T01:27:47;67.13;;;20.27;;
56399;SDS011;42298;53.638;9.876;2023-03-03T01:30:14;72.33;;;19.80;;
56399;SDS011;42298;53.638;9.876;2023-03-03T01:32:39;34.93;;;17.73;;
56399;SDS011;42298;53.638;9.876;2023-03-03T01:35:05;164.37;;;27.53;;
56399;SDS011;42298;53.638;9.876;2023-03-03T01:37:32;42.10;;;17.10;;
56399;SDS011;42298;53.638;9.876;2023-03-03T01:39:58;30.40;;;17.13;;
56399;SDS011;42298;53.638;9.876;2023-03-03T01:42:24;32.73;;;17.70;;
56399;SDS011;42298;53.638;9.876;2023-03-03T01:48:00;35.30;;;17.80;;
56399;SDS011;42298;53.638;9.876;2023-03-03T01:50:53;41.97;;;17.50;;
56399;SDS011;42298;53.638;9.876;2023-03-03T01:53:26;32.93;;;16.93;;
56399;SDS011;42298;53.638;9.876;2023-03-03T01:55:57;38.33;;;16.77;;
56399;SDS011;42298;53.638;9.876;2023-03-03T01:58:27;37.23;;;16.43;;
56399;SDS011;42298;53.638;9.876;2023-03-03T02:01:02;40.23;;;17.70;;
56399;SDS011;42298;53.638;9.876;2023-03-03T02:03:31;61.83;;;19.17;;
56399;SDS011;42298;53.638;9.876;2023-03-03T02:05:58;43.73;;;18.47;;
56399;SDS011;42298;53.638;9.876;2023-03-03T02:08:27;62.93;;;18.80;;
56399;SDS011;42298;53.638;9.876;2023-03-03T02:10:59;53.80;;;18.93;;
56399;SDS011;42298;53.638;9.876;2023-03-03T02:13:25;73.73;;;20.63;;
56399;SDS011;42298;53.638;9.876;2023-03-03T02:15:50;24.87;;;15.77;;
56399;SDS011;42298;53.638;9.876;2023-03-03T02:18:16;91.67;;;21.90;;
56399;SDS011;42298;53.638;9.876;2023-03-03T02:23:38;41.27;;;17.67;;
56399;SDS011;42298;53.638;9.876;2023-03-03T02:26:15;60.77;;;19.77;;
56399;SDS011;42298;53.638;9.876;2023-03-03T02:28:51;46.87;;;17.90;;
56399;SDS011;42298;53.638;9.876;2023-03-03T02:31:18;51.37;;;19.23;;
56399;SDS011;42298;53.638;9.876;2023-03-03T02:33:49;78.83;;;21.60;;
56399;SDS011;42298;53.638;9.876;2023-03-03T02:36:17;68.23;;;20.77;;
56399;SDS011;42298;53.638;9.876;2023-03-03T02:38:54;60.60;;;19.53;;
56399;SDS011;42298;53.638;9.876;2023-03-03T02:41:44;51.33;;;18.37;;
56399;SDS011;42298;53.638;9.876;2023-03-03T02:44:18;41.50;;;18.83;;
56399;SDS011;42298;53.638;9.876;2023-03-03T02:46:47;45.07;;;18.63;;
56399;SDS011;42298;53.638;9.876;2023-03-03T02:49:14;59.03;;;18.50;;
56399;SDS011;42298;53.638;9.876;2023-03-03T02:51:42;51.17;;;19.13;;
56399;SDS011;42298;53.638;9.876;2023-03-03T02:54:08;28.33;;;16.83;;
56399;SDS011;42298;53.638;9.876;2023-03-03T02:56:35;45.37;;;18.77;;
56399;SDS011;42298;53.638;9.876;2023-03-03T02:59:01;25.27;;;15.90;;
56399;SDS011;42298;53.638;9.876;2023-03-03T03:01:27;33.60;;;18.20;;
56399;SDS011;42298;53.638;9.876;2023-03-03T03:03:56;26.27;;;16.27;;
56399;SDS011;42298;53.638;9.876;2023-03-03T03:06:22;38.87;;;18.30;;
56399;SDS011;42298;53.638;9.876;2023-03-03T03:08:47;46.53;;;19.67;;
56399;SDS011;42298;53.638;9.876;2023-03-03T03:11:12;111.80;;;26.63;;
56399;SDS011;42298;53.638;9.876;2023-03-03T03:13:38;41.67;;;17.03;;
56399;SDS011;42298;53.638;9.876;2023-03-03T03:16:03;29.57;;;15.93;;
56399;SDS011;42298;53.638;9.876;2023-03-03T03:18:29;109.77;;;22.03;;
56399;SDS011;42298;53.638;9.876;2023-03-03T03:20:54;36.17;;;16.40;;
56399;SDS011;42298;53.638;9.876;2023-03-03T03:23:19;25.10;;;14.77;;
56399;SDS011;42298;53.638;9.876;2023-03-03T03:25:46;40.87;;;17.07;;
56399;SDS011;42298;53.638;9.876;2023-03-03T03:28:12;26.97;;;16.13;;
56399;SDS011;42298;53.638;9.876;2023-03-03T03:30:41;43.23;;;17.27;;
56399;SDS011;42298;53.638;9.876;2023-03-03T03:33:09;34.90;;;16.07;;
56399;SDS011;42298;53.638;9.876;2023-03-03T03:35:36;46.30;;;17.40;;
56399;SDS011;42298;53.638;9.876;2023-03-03T03:38:02;41.93;;;14.83;;
56399;SDS011;42298;53.638;9.876;2023-03-03T03:40:28;42.60;;;16.37;;
56399;SDS011;42298;53.638;9.876;2023-03-03T03:42:53;40.23;;;15.97;;
56399;SDS011;42298;53.638;9.876;2023-03-03T03:45:19;53.87;;;18.37;;
56399;SDS011;42298;53.638;9.876;2023-03-03T03:47:44;91.60;;;23.20;;
56399;SDS011;42298;53.638;9.876;2023-03-03T03:50:10;57.73;;;17.93;;
56399;SDS011;42298;53.638;9.876;2023-03-03T03:52:35;40.87;;;17.10;;
56399;SDS011;42298;53.638;9.876;2023-03-03T03:55:01;58.80;;;17.67;;
56399;SDS011;42298;53.638;9.876;2023-03-03T03:57:26;73.73;;;21.13;;
56399;SDS011;42298;53.638;9.876;2023-03-03T03:59:52;48.70;;;17.03;;
56399;SDS011;42298;53.638;9.876;2023-03-03T04:02:17;33.73;;;15.47;;
56399;SDS011;42298;53.638;9.876;2023-03-03T04:04:43;47.67;;;17.27;;
56399;SDS011;42298;53.638;9.876;2023-03-03T04:07:08;57.27;;;17.33;;
56399;SDS011;42298;53.638;9.876;2023-03-03T04:09:33;38.40;;;17.37;;
56399;SDS011;42298;53.638;9.876;2023-03-03T04:11:59;36.80;;;15.73;;
56399;SDS011;42298;53.638;9.876;2023-03-03T04:14:24;36.77;;;16.00;;
56399;SDS011;42298;53.638;9.876;2023-03-03T04:16:49;29.77;;;14.93;;
56399;SDS011;42298;53.638;9.876;2023-03-03T04:19:15;28.43;;;15.10;;
56399;SDS011;42298;53.638;9.876;2023-03-03T04:21:40;29.30;;;14.73;;
56399;SDS011;42298;53.638;9.876;2023-03-03T04:24:05;55.00;;;16.47;;
56399;SDS011;42298;53.638;9.876;2023-03-03T04:26:32;68.77;;;20.73;;
56399;SDS011;42298;53.638;9.876;2023-03-03T04:28:58;39.07;;;16.40;;
56399;SDS011;42298;53.638;9.876;2023-03-03T04:31:23;41.90;;;18.20;;
56399;SDS011;42298;53.638;9.876;2023-03-03T04:33:50;28.67;;;14.77;;
56399;SDS011;42298;53.638;9.876;2023-03-03T04:36:15;30.80;;;15.97;;
56399;SDS011;42298;53.638;9.876;2023-03-03T04:38:41;34.60;;;16.93;;
56399;SDS011;42298;53.638;9.876;2023-03-03T04:41:06;53.87;;;17.70;;
56399;SDS011;42298;53.638;9.876;2023-03-03T04:43:32;33.83;;;17.07;;
56399;SDS011;42298;53.638;9.876;2023-03-03T04:45:57;41.23;;;18.07;;
56399;SDS011;42298;53.638;9.876;2023-03-03T04:48:22;36.70;;;17.97;;
56399;SDS011;42298;53.638;9.876;2023-03-03T04:50:47;31.30;;;17.47;;
56399;SDS011;42298;53.638;9.876;2023-03-03T04:53:13;45.33;;;19.03;;
56399;SDS011;42298;53.638;9.876;2023-03-03T04:55:38;49.60;;;20.27;;
56399;SDS011;42298;53.638;9.876;2023-03-03T04:58:03;40.00;;;17.57;;
56399;SDS011;42298;53.638;9.876;2023-03-03T05:00:29;40.50;;;17.27;;
56399;SDS011;42298;53.638;9.876;2023-03-03T05:02:55;25.90;;;15.93;;
56399;SDS011;42298;53.638;9.876;2023-03-03T05:05:20;37.10;;;18.10;;
56399;SDS011;42298;53.638;9.876;2023-03-03T05:07:46;24.57;;;15.60;;
56399;SDS011;42298;53.638;9.876;2023-03-03T05:10:11;30.23;;;16.37;;
56399;SDS011;42298;53.638;9.876;2023-03-03T05:12:36;34.93;;;17.03;;
56399;SDS011;42298;53.638;9.876;2023-03-03T05:15:02;26.87;;;15.77;;
56399;SDS011;42298;53.638;9.876;2023-03-03T05:17:28;22.80;;;14.47;;
56399;SDS011;42298;53.638;9.876;2023-03-03T05:19:53;28.93;;;15.93;;
56399;SDS011;42298;53.638;9.876;2023-03-03T05:22:21;52.73;;;18.10;;
56399;SDS011;42298;53.638;9.876;2023-03-03T05:24:47;30.77;;;15.87;;
56399;SDS011;42298;53.638;9.876;2023-03-03T05:27:13;32.77;;;14.43;;
56399;SDS011;42298;53.638;9.876;2023-03-03T05:29:39;28.13;;;14.17;;
56399;SDS011;42298;53.638;9.876;2023-03-03T05:32:04;26.27;;;14.50;;
56399;SDS011;42298;53.638;9.876;2023-03-03T05:34:29;36.07;;;14.97;;
56399;SDS011;42298;53.638;9.876;2023-03-03T05:36:55;48.63;;;16.33;;
56399;SDS011;42298;53.638;9.876;2023-03-03T05:39:21;41.07;;;14.43;;
56399;SDS011;42298;53.638;9.876;2023-03-03T05:41:47;31.63;;;14.40;;
56399;SDS011;42298;53.638;9.876;2023-03-03T05:44:12;30.13;;;14.23;;
56399;SDS011;42298;53.638;9.876;2023-03-03T05:46:38;27.30;;;13.43;;
56399;SDS011;42298;53.638;9.876;2023-03-03T05:49:03;29.13;;;14.60;;
56399;SDS011;42298;53.638;9.876;2023-03-03T05:51:28;24.23;;;13.53;;
56399;SDS011;42298;53.638;9.876;2023-03-03T05:53:54;27.70;;;13.47;;
56399;SDS011;42298;53.638;9.876;2023-03-03T05:56:19;58.23;;;17.97;;
56399;SDS011;42298;53.638;9.876;2023-03-03T05:58:44;44.30;;;16.23;;
56399;SDS011;42298;53.638;9.876;2023-03-03T06:01:10;47.07;;;15.77;;
56399;SDS011;42298;53.638;9.876;2023-03-03T06:03:36;40.53;;;15.43;;
56399;SDS011;42298;53.638;9.876;2023-03-03T06:06:01;50.20;;;16.20;;
56399;SDS011;42298;53.638;9.876;2023-03-03T06:08:26;35.13;;;13.90;;
56399;SDS011;42298;53.638;9.876;2023-03-03T06:10:53;35.87;;;15.20;;
56399;SDS011;42298;53.638;9.876;2023-03-03T06:13:18;24.13;;;13.63;;
56399;SDS011;42298;53.638;9.876;2023-03-03T06:15:44;27.33;;;14.80;;
56399;SDS011;42298;53.638;9.876;2023-03-03T06:18:09;28.93;;;15.23;;
56399;SDS011;42298;53.638;9.876;2023-03-03T06:20:34;44.60;;;14.60;;
56399;SDS011;42298;53.638;9.876;2023-03-03T06:23:00;49.37;;;15.93;;
56399;SDS011;42298;53.638;9.876;2023-03-03T06:25:26;24.17;;;14.00;;
56399;SDS011;42298;53.638;9.876;2023-03-03T06:27:52;26.70;;;14.83;;
56399;SDS011;42298;53.638;9.876;2023-03-03T06:30:18;29.90;;;15.90;;
56399;SDS011;42298;53.638;9.876;2023-03-03T06:32:44;31.17;;;14.20;;
56399;SDS011;42298;53.638;9.876;2023-03-03T06:35:10;45.77;;;16.07;;
56399;SDS011;42298;53.638;9.876;2023-03-03T06:37:35;54.00;;;15.70;;
56399;SDS011;42298;53.638;9.876;2023-03-03T06:40:01;43.23;;;14.03;;
56399;SDS011;42298;53.638;9.876;2023-03-03T06:42:27;48.17;;;14.53;;
56399;SDS011;42298;53.638;9.876;2023-03-03T06:44:52;29.80;;;13.20;;
56399;SDS011;42298;53.638;9.876;2023-03-03T06:47:17;43.77;;;13.47;;
56399;SDS011;42298;53.638;9.876;2023-03-03T06:49:42;20.97;;;12.27;;
56399;SDS011;42298;53.638;9.876;2023-03-03T06:52:12;31.70;;;12.87;;
56399;SDS011;42298;53.638;9.876;2023-03-03T06:54:42;30.53;;;13.47;;
56399;SDS011;42298;53.638;9.876;2023-03-03T06:57:19;23.83;;;12.57;;
56399;SDS011;42298;53.638;9.876;2023-03-03T06:59:51;38.37;;;14.50;;
56399;SDS011;42298;53.638;9.876;2023-03-03T07:02:19;18.93;;;10.97;;
56399;SDS011;42298;53.638;9.876;2023-03-03T07:04:45;31.20;;;13.17;;
56399;SDS011;42298;53.638;9.876;2023-03-03T07:07:14;28.13;;;12.83;;
56399;SDS011;42298;53.638;9.876;2023-03-03T07:09:45;19.43;;;12.03;;
56399;SDS011;42298;53.638;9.876;2023-03-03T07:12:20;37.63;;;12.73;;
56399;SDS011;42298;53.638;9.876;2023-03-03T07:17:34;20.37;;;11.20;;
56399;SDS011;42298;53.638;9.876;2023-03-03T07:20:04;37.30;;;13.80;;
56399;SDS011;42298;53.638;9.876;2023-03-03T07:22:56;24.40;;;11.23;;
56399;SDS011;42298;53.638;9.876;2023-03-03T07:25:29;22.20;;;11.70;;
56399;SDS011;42298;53.638;9.876;2023-03-03T07:27:58;30.13;;;12.37;;
56399;SDS011;42298;53.638;9.876;2023-03-03T07:30:26;41.57;;;13.87;;
56399;SDS011;42298;53.638;9.876;2023-03-03T07:32:54;36.87;;;12.73;;
56399;SDS011;42298;53.638;9.876;2023-03-03T07:35:26;125.70;;;22.90;;
56399;SDS011;42298;53.638;9.876;2023-03-03T07:38:00;56.50;;;16.07;;
56399;SDS011;42298;53.638;9.876;2023-03-03T07:40:28;54.07;;;15.27;;
56399;SDS011;42298;53.638;9.876;2023-03-03T07:43:01;19.70;;;10.83;;
56399;SDS011;42298;53.638;9.876;2023-03-03T07:45:40;33.30;;;12.03;;
56399;SDS011;42298;53.638;9.876;2023-03-03T07:48:24;36.93;;;12.80;;
56399;SDS011;42298;53.638;9.876;2023-03-03T07:50:54;31.73;;;11.10;;
56399;SDS011;42298;53.638;9.876;2023-03-03T07:53:29;123.43;;;21.57;;
56399;SDS011;42298;53.638;9.876;2023-03-03T07:55:59;31.47;;;13.27;;
56399;SDS011;42298;53.638;9.876;2023-03-03T07:58:37;56.20;;;12.93;;
56399;SDS011;42298;53.638;9.876;2023-03-03T08:01:26;49.43;;;13.50;;
56399;SDS011;42298;53.638;9.876;2023-03-03T08:04:07;28.13;;;11.37;;
56399;SDS011;42298;53.638;9.876;2023-03-03T08:11:52;123.77;;;19.87;;
56399;SDS011;42298;53.638;9.876;2023-03-03T08:14:30;41.63;;;12.73;;
56399;SDS011;42298;53.638;9.876;2023-03-03T08:16:58;28.77;;;9.43;;
56399;SDS011;42298;53.638;9.876;2023-03-03T08:19:25;108.57;;;17.80;;
56399;SDS011;42298;53.638;9.876;2023-03-03T08:21:51;29.00;;;10.87;;
56399;SDS011;42298;53.638;9.876;2023-03-03T08:24:23;214.03;;;30.23;;
56399;SDS011;42298;53.638;9.876;2023-03-03T08:26:49;60.80;;;12.67;;
56399;SDS011;42298;53.638;9.876;2023-03-03T08:29:14;164.47;;;22.90;;
56399;SDS011;42298;53.638;9.876;2023-03-03T08:31:40;281.93;;;25.37;;
56399;SDS011;42298;53.638;9.876;2023-03-03T08:34:05;19.63;;;8.60;;
56399;SDS011;42298;53.638;9.876;2023-03-03T08:36:30;106.60;;;16.97;;
56399;SDS011;42298;53.638;9.876;2023-03-03T08:38:56;82.30;;;13.90;;
56399;SDS011;42298;53.638;9.876;2023-03-03T08:41:21;183.27;;;24.07;;
56399;SDS011;42298;53.638;9.876;2023-03-03T08:43:46;18.53;;;9.80;;
56399;SDS011;42298;53.638;9.876;2023-03-03T08:46:12;74.63;;;14.30;;
56399;SDS011;42298;53.638;9.876;2023-03-03T08:48:37;75.20;;;13.93;;
56399;SDS011;42298;53.638;9.876;2023-03-03T08:51:03;56.80;;;12.53;;
56399;SDS011;42298;53.638;9.876;2023-03-03T08:53:28;171.17;;;17.87;;
56399;SDS011;42298;53.638;9.876;2023-03-03T08:55:54;175.10;;;18.77;;
56399;SDS011;42298;53.638;9.876;2023-03-03T08:58:20;21.13;;;7.07;;
56399;SDS011;42298;53.638;9.876;2023-03-03T09:00:45;57.10;;;12.30;;
56399;SDS011;42298;53.638;9.876;2023-03-03T09:03:11;20.77;;;7.63;;
56399;SDS011;42298;53.638;9.876;2023-03-03T09:05:37;58.47;;;13.10;;
56399;SDS011;42298;53.638;9.876;2023-03-03T09:08:03;20.80;;;8.67;;
56399;SDS011;42298;53.638;9.876;2023-03-03T09:10:33;14.93;;;7.50;;
56399;SDS011;42298;53.638;9.876;2023-03-03T09:13:01;104.57;;;17.37;;
56399;SDS011;42298;53.638;9.876;2023-03-03T09:15:35;39.50;;;10.27;;
56399;SDS011;42298;53.638;9.876;2023-03-03T09:20:46;50.50;;;11.13;;
56399;SDS011;42298;53.638;9.876;2023-03-03T09:23:32;148.67;;;16.50;;
56399;SDS011;42298;53.638;9.876;2023-03-03T09:28:46;74.73;;;13.47;;
56399;SDS011;42298;53.638;9.876;2023-03-03T09:31:25;114.80;;;16.63;;
56399;SDS011;42298;53.638;9.876;2023-03-03T09:33:55;50.87;;;11.57;;
56399;SDS011;42298;53.638;9.876;2023-03-03T09:36:24;21.80;;;8.50;;
56399;SDS011;42298;53.638;9.876;2023-03-03T09:38:52;48.53;;;9.13;;
56399;SDS011;42298;53.638;9.876;2023-03-03T09:58:19;40.60;;;10.83;;
56399;SDS011;42298;53.638;9.876;2023-03-03T10:23:01;17.63;;;9.00;;
56399;SDS011;42298;53.638;9.876;2023-03-03T10:25:41;18.97;;;9.40;;
56399;SDS011;42298;53.638;9.876;2023-03-03T10:28:17;18.93;;;9.83;;
56399;SDS011;42298;53.638;9.876;2023-03-03T10:33:28;16.73;;;9.03;;
56399;SDS011;42298;53.638;9.876;2023-03-03T10:36:06;15.80;;;9.40;;
56399;SDS011;42298;53.638;9.876;2023-03-03T10:41:33;16.13;;;9.90;;
56399;SDS011;42298;53.638;9.876;2023-03-03T10:44:25;17.97;;;11.73;;
56399;SDS011;42298;53.638;9.876;2023-03-03T10:50:01;18.83;;;10.93;;
56399;SDS011;42298;53.638;9.876;2023-03-03T10:52:38;18.77;;;10.80;;
56399;SDS011;42298;53.638;9.876;2023-03-03T10:55:33;17.63;;;11.47;;
56399;SDS011;42298;53.638;9.876;2023-03-03T11:00:44;19.17;;;12.80;;
56399;SDS011;42298;53.638;9.876;2023-03-03T11:06:00;18.03;;;11.27;;
56399;SDS011;42298;53.638;9.876;2023-03-03T11:08:34;16.57;;;9.73;;
56399;SDS011;42298;53.638;9.876;2023-03-03T11:11:19;17.93;;;10.67;;
56399;SDS011;42298;53.638;9.876;2023-03-03T11:14:05;18.57;;;11.33;;
56399;SDS011;42298;53.638;9.876;2023-03-03T11:16:55;19.50;;;11.60;;
56399;SDS011;42298;53.638;9.876;2023-03-03T11:19:34;18.93;;;11.33;;
56399;SDS011;42298;53.638;9.876;2023-03-03T11:25:02;20.20;;;12.43;;
56399;SDS011;42298;53.638;9.876;2023-03-03T11:30:11;24.40;;;14.47;;
56399;SDS011;42298;53.638;9.876;2023-03-03T11:41:13;22.27;;;12.63;;
56399;SDS011;42298;53.638;9.876;2023-03-03T11:43:50;22.83;;;12.60;;
56399;SDS011;42298;53.638;9.876;2023-03-03T11:46:29;23.67;;;12.37;;
56399;SDS011;42298;53.638;9.876;2023-03-03T11:49:04;22.17;;;12.43;;
56399;SDS011;42298;53.638;9.876;2023-03-03T11:54:31;20.37;;;11.73;;
56399;SDS011;42298;53.638;9.876;2023-03-03T11:57:13;21.67;;;11.73;;
56399;SDS011;42298;53.638;9.876;2023-03-03T11:59:59;22.30;;;13.17;;
56399;SDS011;42298;53.638;9.876;2023-03-03T12:02:43;22.03;;;12.23;;
56399;SDS011;42298;53.638;9.876;2023-03-03T12:05:31;22.73;;;11.40;;
56399;SDS011;42298;53.638;9.876;2023-03-03T12:14:11;19.13;;;10.23;;
56399;SDS011;42298;53.638;9.876;2023-03-03T12:22:04;21.60;;;9.70;;
56399;SDS011;42298;53.638;9.876;2023-03-03T12:24:54;20.37;;;9.10;;
56399;SDS011;42298;53.638;9.876;2023-03-03T12:27:37;16.70;;;7.83;;
56399;SDS011;42298;53.638;9.876;2023-03-03T12:35:56;16.13;;;8.03;;
56399;SDS011;42298;53.638;9.876;2023-03-03T12:41:22;14.53;;;6.10;;
56399;SDS011;42298;53.638;9.876;2023-03-03T12:44:19;12.23;;;5.20;;
56399;SDS011;42298;53.638;9.876;2023-03-03T12:50:00;9.83;;;4.40;;
56399;SDS011;42298;53.638;9.876;2023-03-03T13:06:22;7.13;;;3.20;;
56399;SDS011;42298;53.638;9.876;2023-03-03T13:11:28;9.90;;;3.43;;
56399;SDS011;42298;53.638;9.876;2023-03-03T13:16:55;8.23;;;3.10;;
56399;SDS011;42298;53.638;9.876;2023-03-03T13:19:37;10.23;;;3.10;;
56399;SDS011;42298;53.638;9.876;2023-03-03T13:22:10;8.77;;;2.67;;
56399;SDS011;42298;53.638;9.876;2023-03-03T13:27:40;8.97;;;2.53;;
56399;SDS011;42298;53.638;9.876;2023-03-03T13:30:17;5.63;;;2.20;;
56399;SDS011;42298;53.638;9.876;2023-03-03T13:32:48;4.50;;;1.83;;
56399;SDS011;42298;53.638;9.876;2023-03-03T13:35:43;4.73;;;2.00;;
56399;SDS011;42298;53.638;9.876;2023-03-03T13:38:20;4.03;;;2.20;;
56399;SDS011;42298;53.638;9.876;2023-03-03T13:41:00;5.30;;;1.90;;
56399;SDS011;42298;53.638;9.876;2023-03-03T13:43:39;3.33;;;2.10;;
56399;SDS011;42298;53.638;9.876;2023-03-03T13:49:15;5.10;;;1.90;;
56399;SDS011;42298;53.638;9.876;2023-03-03T14:05:22;5.90;;;1.50;;
56399;SDS011;42298;53.638;9.876;2023-03-03T14:07:58;5.83;;;1.73;;
56399;SDS011;42298;53.638;9.876;2023-03-03T14:10:36;4.37;;;1.73;;
56399;SDS011;42298;53.638;9.876;2023-03-03T14:13:20;3.63;;;1.57;;
56399;SDS011;42298;53.638;9.876;2023-03-03T14:16:04;7.47;;;1.70;;
56399;SDS011;42298;53.638;9.876;2023-03-03T14:18:59;4.83;;;1.67;;
56399;SDS011;42298;53.638;9.876;2023-03-03T14:21:37;6.60;;;2.00;;
56399;SDS011;42298;53.638;9.876;2023-03-03T14:24:20;7.87;;;1.93;;
56399;SDS011;42298;53.638;9.876;2023-03-03T14:26:53;7.23;;;2.20;;
56399;SDS011;42298;53.638;9.876;2023-03-03T14:32:20;4.87;;;1.67;;
56399;SDS011;42298;53.638;9.876;2023-03-03T14:34:58;6.07;;;1.60;;
56399;SDS011;42298;53.638;9.876;2023-03-03T14:37:44;4.53;;;1.90;;
56399;SDS011;42298;53.638;9.876;2023-03-03T14:40:14;6.37;;;1.80;;
56399;SDS011;42298;53.638;9.876;2023-03-03T14:42:52;7.83;;;2.07;;
56399;SDS011;42298;53.638;9.876;2023-03-03T14:50:39;9.53;;;2.20;;
56399;SDS011;42298;53.638;9.876;2023-03-03T14:55:36;8.17;;;1.93;;
56399;SDS011;42298;53.638;9.876;2023-03-03T14:58:07;8.47;;;2.07;;
56399;SDS011;42298;53.638;9.876;2023-03-03T15:00:48;9.93;;;2.43;;
56399;SDS011;42298;53.638;9.876;2023-03-03T15:03:22;8.30;;;2.20;;
56399;SDS011;42298;53.638;9.876;2023-03-03T15:05:53;8.13;;;2.20;;
56399;SDS011;42298;53.638;9.876;2023-03-03T15:08:40;11.03;;;2.50;;
56399;SDS011;42298;53.638;9.876;2023-03-03T15:11:20;12.93;;;2.43;;
56399;SDS011;42298;53.638;9.876;2023-03-03T15:13:51;12.40;;;2.20;;
56399;SDS011;42298;53.638;9.876;2023-03-03T15:16:17;7.43;;;2.40;;
56399;SDS011;42298;53.638;9.876;2023-03-03T15:19:09;14.07;;;2.80;;
56399;SDS011;42298;53.638;9.876;2023-03-03T15:22:03;7.93;;;2.03;;
56399;SDS011;42298;53.638;9.876;2023-03-03T15:24:43;9.97;;;2.93;;
56399;SDS011;42298;53.638;9.876;2023-03-03T15:27:20;11.67;;;2.60;;
56399;SDS011;42298;53.638;9.876;2023-03-03T15:33:00;11.83;;;2.70;;
56399;SDS011;42298;53.638;9.876;2023-03-03T15:35:50;9.40;;;2.70;;
56399;SDS011;42298;53.638;9.876;2023-03-03T15:41:21;16.50;;;3.03;;
56399;SDS011;42298;53.638;9.876;2023-03-03T15:58:07;14.73;;;3.10;;
56399;SDS011;42298;53.638;9.876;2023-03-03T16:03:37;20.23;;;2.93;;
56399;SDS011;42298;53.638;9.876;2023-03-03T16:06:14;13.73;;;3.97;;
56399;SDS011;42298;53.638;9.876;2023-03-03T16:09:02;12.00;;;3.20;;
56399;SDS011;42298;53.638;9.876;2023-03-03T16:11:45;19.30;;;3.67;;
56399;SDS011;42298;53.638;9.876;2023-03-03T16:19:45;16.37;;;3.53;;
56399;SDS011;42298;53.638;9.876;2023-03-03T16:28:05;18.50;;;3.50;;
56399;SDS011;42298;53.638;9.876;2023-03-03T16:33:22;15.63;;;3.50;;
56399;SDS011;42298;53.638;9.876;2023-03-03T16:36:03;18.87;;;3.53;;
56399;SDS011;42298;53.638;9.876;2023-03-03T16:39:44;17.40;;;3.70;;
56399;SDS011;42298;53.638;9.876;2023-03-03T16:41:46;13.13;;;3.87;;
56399;SDS011;42298;53.638;9.876;2023-03-03T16:47:42;20.37;;;4.30;;
56399;SDS011;42298;53.638;9.876;2023-03-03T16:50:24;18.33;;;4.30;;
56399;SDS011;42298;53.638;9.876;2023-03-03T16:52:55;17.90;;;3.77;;
56399;SDS011;42298;53.638;9.876;2023-03-03T16:55:33;23.30;;;4.10;;
56399;SDS011;42298;53.638;9.876;2023-03-03T17:00:52;15.87;;;3.90;;
56399;SDS011;42298;53.638;9.876;2023-03-03T17:19:54;22.70;;;4.40;;
56399;SDS011;42298;53.638;9.876;2023-03-03T17:22:42;17.27;;;4.83;;
56399;SDS011;42298;53.638;9.876;2023-03-03T17:25:22;20.37;;;4.40;;
56399;SDS011;42298;53.638;9.876;2023-03-03T17:39:08;20.27;;;4.77;;
56399;SDS011;42298;53.638;9.876;2023-03-03T17:44:15;19.17;;;4.50;;
56399;SDS011;42298;53.638;9.876;2023-03-03T17:46:49;24.13;;;5.33;;
56399;SDS011;42298;53.638;9.876;2023-03-03T18:03:56;18.13;;;4.30;;
56399;SDS011;42298;53.638;9.876;2023-03-03T18:14:52;19.40;;;3.70;;
56399;SDS011;42298;53.638;9.876;2023-03-03T18:17:49;24.80;;;4.60;;
56399;SDS011;42298;53.638;9.876;2023-03-03T18:25:59;23.43;;;6.00;;
56399;SDS011;42298;53.638;9.876;2023-03-03T18:28:42;22.07;;;5.27;;
56399;SDS011;42298;53.638;9.876;2023-03-03T18:31:18;26.00;;;4.53;;
56399;SDS011;42298;53.638;9.876;2023-03-03T18:38:57;26.63;;;4.73;;
56399;SDS011;42298;53.638;9.876;2023-03-03T18:41:25;23.43;;;4.83;;
56399;SDS011;42298;53.638;9.876;2023-03-03T18:43:56;19.70;;;4.67;;
56399;SDS011;42298;53.638;9.876;2023-03-03T18:48:51;26.03;;;5.53;;
56399;SDS011;42298;53.638;9.876;2023-03-03T18:56:49;22.10;;;4.70;;
56399;SDS011;42298;53.638;9.876;2023-03-03T19:02:06;21.73;;;4.77;;
56399;SDS011;42298;53.638;9.876;2023-03-03T19:04:51;22.77;;;5.57;;
56399;SDS011;42298;53.638;9.876;2023-03-03T19:12:46;22.50;;;5.17;;
56399;SDS011;42298;53.638;9.876;2023-03-03T19:20:40;27.37;;;4.90;;
56399;SDS011;42298;53.638;9.876;2023-03-03T19:23:11;21.03;;;4.70;;
56399;SDS011;42298;53.638;9.876;2023-03-03T19:25:39;26.43;;;5.93;;
56399;SDS011;42298;53.638;9.876;2023-03-03T19:30:41;18.70;;;4.50;;
56399;SDS011;42298;53.638;9.876;2023-03-03T19:33:37;27.47;;;6.00;;
56399;SDS011;42298;53.638;9.876;2023-03-03T19:47:53;22.73;;;4.60;;
56399;SDS011;42298;53.638;9.876;2023-03-03T19:58:43;22.87;;;5.57;;
56399;SDS011;42298;53.638;9.876;2023-03-03T20:01:35;29.47;;;5.57;;
56399;SDS011;42298;53.638;9.876;2023-03-03T20:06:50;28.93;;;5.50;;
56399;SDS011;42298;53.638;9.876;2023-03-03T20:09:51;23.00;;;4.93;;
56399;SDS011;42298;53.638;9.876;2023-03-03T20:15:13;21.60;;;5.90;;
56399;SDS011;42298;53.638;9.876;2023-03-03T20:20:52;23.70;;;5.87;;